sensor_id;sensor_type;location;lat;lon;timestamp;temperature;humidity
41557;DHT22;27720;51.992;5.890;2024-01-15T11:04:07;0.90;99.90
41557;DHT22;27720;51.992;5.890;2024-01-15T11:06:44;1.20;99.90
41557;DHT22;27720;51.992;5.890;2024-01-15T11:09:12;1.70;99.90
41557;DHT22;27720;51.992;5.890;2024-01-15T11:11:44;2.30;99.90
41557;DHT22;27720;51.992;5.890;2024-01-15T11:14:09;2.70;99.90
41557;DHT22;27720;51.992;5.890;2024-01-15T11:16:55;3.00;99.90
41557;DHT22;27720;51.992;5.890;2024-01-15T11:24:54;3.60;99.90
41557;DHT22;27720;51.992;5.890;2024-01-15T11:27:45;3.70;99.90
41557;DHT22;27720;51.992;5.890;2024-01-15T11:30:20;3.90;99.90
41557;DHT22;27720;51.992;5.890;2024-01-15T11:32:50;3.90;99.90
41557;DHT22;27720;51.992;5.890;2024-01-15T11:35:15;4.00;99.90
41557;DHT22;27720;51.992;5.890;2024-01-15T11:42:58;4.20;99.90
41557;DHT22;27720;51.992;5.890;2024-01-15T11:45:24;4.20;99.90
41557;DHT22;27720;51.992;5.890;2024-01-15T11:48:12;4.30;99.90
41557;DHT22;27720;51.992;5.890;2024-01-15T11:50:44;4.30;99.90
41557;DHT22;27720;51.992;5.890;2024-01-15T11:55:45;4.40;99.90
41557;DHT22;27720;51.992;5.890;2024-01-15T11:58:11;4.40;99.90
41557;DHT22;27720;51.992;5.890;2024-01-15T12:00:40;4.40;99.90
41557;DHT22;27720;51.992;5.890;2024-01-15T12:03:08;4.40;99.90
41557;DHT22;27720;51.992;5.890;2024-01-15T12:05:37;4.40;99.90
41557;DHT22;27720;51.992;5.890;2024-01-15T12:08:03;4.40;99.90
41557;DHT22;27720;51.992;5.890;2024-01-15T12:10:40;4.40;99.90
41557;DHT22;27720;51.992;5.890;2024-01-15T12:13:16;4.40;99.90
41557;DHT22;27720;51.992;5.890;2024-01-15T12:15:43;4.40;99.90
41557;DHT22;27720;51.992;5.890;2024-01-15T12:18:14;4.40;99.90
41557;DHT22;27720;51.992;5.890;2024-01-15T12:20:40;4.40;99.90
41557;DHT22;27720;51.992;5.890;2024-01-15T12:23:07;4.40;99.90
41557;DHT22;27720;51.992;5.890;2024-01-15T12:25:33;4.50;99.90
41557;DHT22;27720;51.992;5.890;2024-01-15T12:28:00;4.50;99.90
41557;DHT22;27720;51.992;5.890;2024-01-15T12:30:30;4.60;99.90
41557;DHT22;27720;51.992;5.890;2024-01-15T12:33:04;4.60;99.90
41557;DHT22;27720;51.992;5.890;2024-01-15T12:35:30;4.70;99.90
41557;DHT22;27720;51.992;5.890;2024-01-15T12:37:56;4.70;99.90
41557;DHT22;27720;51.992;5.890;2024-01-15T12:40:22;4.70;99.90
41557;DHT22;27720;51.992;5.890;2024-01-15T12:42:48;4.70;99.90
41557;DHT22;27720;51.992;5.890;2024-01-15T12:45:15;4.70;99.90
41557;DHT22;27720;51.992;5.890;2024-01-15T12:47:41;4.70;99.90
41557;DHT22;27720;51.992;5.890;2024-01-15T12:50:11;4.70;99.90
41557;DHT22;27720;51.992;5.890;2024-01-15T12:52:37;4.60;99.90
41557;DHT22;27720;51.992;5.890;2024-01-15T12:55:07;4.60;99.90
41557;DHT22;27720;51.992;5.890;2024-01-15T12:57:35;4.50;99.90
41557;DHT22;27720;51.992;5.890;2024-01-15T13:00:01;4.60;99.90
41557;DHT22;27720;51.992;5.890;2024-01-15T13:02:27;4.50;99.90
41557;DHT22;27720;51.992;5.890;2024-01-15T13:04:52;4.60;99.90
41557;DHT22;27720;51.992;5.890;2024-01-15T13:07:19;4.60;99.90
41557;DHT22;27720;51.992;5.890;2024-01-15T13:09:45;4.50;99.90
41557;DHT22;27720;51.992;5.890;2024-01-15T13:12:10;4.60;99.90
41557;DHT22;27720;51.992;5.890;2024-01-15T13:14:37;4.60;99.90
41557;DHT22;27720;51.992;5.890;2024-01-15T13:17:03;4.70;99.90
41557;DHT22;27720;51.992;5.890;2024-01-15T13:19:29;4.70;99.90
41557;DHT22;27720;51.992;5.890;2024-01-15T13:21:55;4.70;99.90
41557;DHT22;27720;51.992;5.890;2024-01-15T13:24:24;4.60;99.90
41557;DHT22;27720;51.992;5.890;2024-01-15T13:26:49;4.60;99.90
41557;DHT22;27720;51.992;5.890;2024-01-15T13:29:15;4.60;99.90
41557;DHT22;27720;51.992;5.890;2024-01-15T13:31:41;4.60;99.90
41557;DHT22;27720;51.992;5.890;2024-01-15T13:34:10;4.60;99.90
41557;DHT22;27720;51.992;5.890;2024-01-15T13:36:36;4.60;99.90
41557;DHT22;27720;51.992;5.890;2024-01-15T13:39:04;4.60;99.90
41557;DHT22;27720;51.992;5.890;2024-01-15T13:41:35;4.60;99.90
41557;DHT22;27720;51.992;5.890;2024-01-15T13:44:00;4.60;99.90
41557;DHT22;27720;51.992;5.890;2024-01-15T13:46:26;4.60;99.90
41557;DHT22;27720;51.992;5.890;2024-01-15T13:48:52;4.60;99.90
41557;DHT22;27720;51.992;5.890;2024-01-15T13:51:22;4.60;99.90
41557;DHT22;27720;51.992;5.890;2024-01-15T13:53:49;4.60;99.90
41557;DHT22;27720;51.992;5.890;2024-01-15T13:56:15;4.50;99.90
41557;DHT22;27720;51.992;5.890;2024-01-15T13:58:41;4.50;99.90
41557;DHT22;27720;51.992;5.890;2024-01-15T14:01:06;4.40;99.90
41557;DHT22;27720;51.992;5.890;2024-01-15T14:03:32;4.50;99.90
41557;DHT22;27720;51.992;5.890;2024-01-15T14:05:59;4.40;99.90
41557;DHT22;27720;51.992;5.890;2024-01-15T14:08:25;4.40;99.90
41557;DHT22;27720;51.992;5.890;2024-01-15T14:10:51;4.40;99.90
41557;DHT22;27720;51.992;5.890;2024-01-15T14:13:21;4.40;99.90
41557;DHT22;27720;51.992;5.890;2024-01-15T14:15:47;4.40;99.90
41557;DHT22;27720;51.992;5.890;2024-01-15T14:18:16;4.40;99.90
41557;DHT22;27720;51.992;5.890;2024-01-15T14:20:42;4.40;99.90
41557;DHT22;27720;51.992;5.890;2024-01-15T14:23:09;4.40;99.90
41557;DHT22;27720;51.992;5.890;2024-01-15T14:25:35;4.40;99.90
41557;DHT22;27720;51.992;5.890;2024-01-15T14:28:01;4.50;99.90
41557;DHT22;27720;51.992;5.890;2024-01-15T14:30:27;4.50;99.90
41557;DHT22;27720;51.992;5.890;2024-01-15T14:32:52;4.50;99.90
41557;DHT22;27720;51.992;5.890;2024-01-15T14:35:20;4.60;99.90
41557;DHT22;27720;51.992;5.890;2024-01-15T14:37:45;4.60;99.90
41557;DHT22;27720;51.992;5.890;2024-01-15T14:40:13;4.50;99.90
41557;DHT22;27720;51.992;5.890;2024-01-15T14:42:41;4.50;99.90
41557;DHT22;27720;51.992;5.890;2024-01-15T14:45:08;4.50;99.90
41557;DHT22;27720;51.992;5.890;2024-01-15T14:47:38;4.50;99.90
41557;DHT22;27720;51.992;5.890;2024-01-15T14:50:07;4.50;99.90
41557;DHT22;27720;51.992;5.890;2024-01-15T14:52:33;4.60;99.90
41557;DHT22;27720;51.992;5.890;2024-01-15T14:55:00;4.60;99.90
41557;DHT22;27720;51.992;5.890;2024-01-15T14:57:26;4.60;99.90
41557;DHT22;27720;51.992;5.890;2024-01-15T14:59:52;4.60;99.90
41557;DHT22;27720;51.992;5.890;2024-01-15T15:02:18;4.60;99.90
41557;DHT22;27720;51.992;5.890;2024-01-15T15:04:44;4.60;99.90
41557;DHT22;27720;51.992;5.890;2024-01-15T15:07:10;4.60;99.90
41557;DHT22;27720;51.992;5.890;2024-01-15T15:09:38;4.60;99.90
41557;DHT22;27720;51.992;5.890;2024-01-15T15:12:07;4.60;99.90
41557;DHT22;27720;51.992;5.890;2024-01-15T15:14:33;4.60;99.90
41557;DHT22;27720;51.992;5.890;2024-01-15T15:17:05;4.70;99.90
41557;DHT22;27720;51.992;5.890;2024-01-15T15:19:34;4.70;99.90
41557;DHT22;27720;51.992;5.890;2024-01-15T15:22:00;4.70;99.90
41557;DHT22;27720;51.992;5.890;2024-01-15T15:24:28;4.70;99.90
41557;DHT22;27720;51.992;5.890;2024-01-15T15:26:54;4.60;99.90
41557;DHT22;27720;51.992;5.890;2024-01-15T15:29:19;4.60;99.90
41557;DHT22;27720;51.992;5.890;2024-01-15T15:31:45;4.60;99.90
41557;DHT22;27720;51.992;5.890;2024-01-15T15:34:14;4.60;99.90
41557;DHT22;27720;51.992;5.890;2024-01-15T15:36:41;4.60;99.90
41557;DHT22;27720;51.992;5.890;2024-01-15T15:39:06;4.60;99.90
41557;DHT22;27720;51.992;5.890;2024-01-15T15:41:32;4.50;99.90
41557;DHT22;27720;51.992;5.890;2024-01-15T15:43:58;4.50;99.90
41557;DHT22;27720;51.992;5.890;2024-01-15T15:46:24;4.50;99.90
41557;DHT22;27720;51.992;5.890;2024-01-15T15:48:50;4.40;99.90
41557;DHT22;27720;51.992;5.890;2024-01-15T15:51:15;4.40;99.90
41557;DHT22;27720;51.992;5.890;2024-01-15T15:53:41;4.40;99.90
41557;DHT22;27720;51.992;5.890;2024-01-15T15:56:07;4.40;99.90
41557;DHT22;27720;51.992;5.890;2024-01-15T15:58:32;4.30;99.90
41557;DHT22;27720;51.992;5.890;2024-01-15T16:00:58;4.30;99.90
41557;DHT22;27720;51.992;5.890;2024-01-15T16:03:24;4.30;99.90
41557;DHT22;27720;51.992;5.890;2024-01-15T16:05:49;4.20;99.90
41557;DHT22;27720;51.992;5.890;2024-01-15T16:08:16;4.20;99.90
41557;DHT22;27720;51.992;5.890;2024-01-15T16:10:45;4.20;99.90
41557;DHT22;27720;51.992;5.890;2024-01-15T16:13:18;4.20;99.90
41557;DHT22;27720;51.992;5.890;2024-01-15T16:15:44;4.20;99.90
41557;DHT22;27720;51.992;5.890;2024-01-15T16:18:10;4.20;99.90
41557;DHT22;27720;51.992;5.890;2024-01-15T16:20:35;4.20;99.90
41557;DHT22;27720;51.992;5.890;2024-01-15T16:23:01;4.10;99.90
41557;DHT22;27720;51.992;5.890;2024-01-15T16:25:27;4.20;99.90
41557;DHT22;27720;51.992;5.890;2024-01-15T16:27:53;4.10;99.90
41557;DHT22;27720;51.992;5.890;2024-01-15T16:30:18;4.10;99.90
41557;DHT22;27720;51.992;5.890;2024-01-15T16:32:45;4.10;99.90
41557;DHT22;27720;51.992;5.890;2024-01-15T16:35:10;4.00;99.90
41557;DHT22;27720;51.992;5.890;2024-01-15T16:37:36;4.10;99.90
41557;DHT22;27720;51.992;5.890;2024-01-15T16:40:03;4.10;99.90
41557;DHT22;27720;51.992;5.890;2024-01-15T16:42:29;4.10;99.90
41557;DHT22;27720;51.992;5.890;2024-01-15T16:44:55;4.10;99.90
41557;DHT22;27720;51.992;5.890;2024-01-15T16:47:21;4.00;99.90
41557;DHT22;27720;51.992;5.890;2024-01-15T16:49:46;4.00;99.90
41557;DHT22;27720;51.992;5.890;2024-01-15T16:52:12;4.00;99.90
41557;DHT22;27720;51.992;5.890;2024-01-15T16:54:38;4.00;99.90
41557;DHT22;27720;51.992;5.890;2024-01-15T16:57:03;4.00;99.90
41557;DHT22;27720;51.992;5.890;2024-01-15T16:59:29;3.90;99.90
41557;DHT22;27720;51.992;5.890;2024-01-15T17:01:55;4.00;99.90
41557;DHT22;27720;51.992;5.890;2024-01-15T17:04:22;3.90;99.90
41557;DHT22;27720;51.992;5.890;2024-01-15T17:06:48;4.00;99.90
41557;DHT22;27720;51.992;5.890;2024-01-15T17:09:14;4.00;99.90
41557;DHT22;27720;51.992;5.890;2024-01-15T17:11:40;4.00;99.90
41557;DHT22;27720;51.992;5.890;2024-01-15T17:14:05;4.00;99.90
41557;DHT22;27720;51.992;5.890;2024-01-15T17:16:31;3.90;99.90
41557;DHT22;27720;51.992;5.890;2024-01-15T17:18:57;4.00;99.90
41557;DHT22;27720;51.992;5.890;2024-01-15T17:21:22;4.00;99.90
41557;DHT22;27720;51.992;5.890;2024-01-15T17:23:48;4.00;99.90
41557;DHT22;27720;51.992;5.890;2024-01-15T17:26:14;4.00;99.90
41557;DHT22;27720;51.992;5.890;2024-01-15T17:28:39;3.90;99.90
41557;DHT22;27720;51.992;5.890;2024-01-15T17:31:05;4.00;99.90
41557;DHT22;27720;51.992;5.890;2024-01-15T17:33:31;3.90;99.90
41557;DHT22;27720;51.992;5.890;2024-01-15T17:35:57;4.00;99.90
41557;DHT22;27720;51.992;5.890;2024-01-15T17:38:23;4.00;99.90
41557;DHT22;27720;51.992;5.890;2024-01-15T17:40:49;4.00;99.90
41557;DHT22;27720;51.992;5.890;2024-01-15T17:43:15;4.00;99.90
41557;DHT22;27720;51.992;5.890;2024-01-15T17:45:41;4.00;99.90
41557;DHT22;27720;51.992;5.890;2024-01-15T17:48:07;4.00;99.90
41557;DHT22;27720;51.992;5.890;2024-01-15T17:50:39;4.00;99.90
41557;DHT22;27720;51.992;5.890;2024-01-15T17:53:06;4.00;99.90
41557;DHT22;27720;51.992;5.890;2024-01-15T17:55:31;4.10;99.90
41557;DHT22;27720;51.992;5.890;2024-01-15T17:57:57;4.00;99.90
41557;DHT22;27720;51.992;5.890;2024-01-15T18:00:23;4.00;99.90
41557;DHT22;27720;51.992;5.890;2024-01-15T18:02:49;4.00;99.90
41557;DHT22;27720;51.992;5.890;2024-01-15T18:05:15;4.00;99.90
41557;DHT22;27720;51.992;5.890;2024-01-15T18:07:41;4.00;99.90
41557;DHT22;27720;51.992;5.890;2024-01-15T18:10:08;4.00;99.90
41557;DHT22;27720;51.992;5.890;2024-01-15T18:12:38;4.00;99.90
41557;DHT22;27720;51.992;5.890;2024-01-15T18:15:04;4.00;99.90
41557;DHT22;27720;51.992;5.890;2024-01-15T18:17:30;3.90;99.90
41557;DHT22;27720;51.992;5.890;2024-01-15T18:19:58;3.90;99.90
41557;DHT22;27720;51.992;5.890;2024-01-15T18:22:24;3.90;99.90
41557;DHT22;27720;51.992;5.890;2024-01-15T18:24:49;3.90;99.90
41557;DHT22;27720;51.992;5.890;2024-01-15T18:27:15;3.90;99.90
41557;DHT22;27720;51.992;5.890;2024-01-15T18:29:43;3.90;99.90
41557;DHT22;27720;51.992;5.890;2024-01-15T18:32:15;3.80;99.90
41557;DHT22;27720;51.992;5.890;2024-01-15T18:34:44;3.80;99.90
41557;DHT22;27720;51.992;5.890;2024-01-15T18:37:15;3.80;99.90
41557;DHT22;27720;51.992;5.890;2024-01-15T18:39:44;3.80;99.90
41557;DHT22;27720;51.992;5.890;2024-01-15T18:42:15;3.80;99.90
41557;DHT22;27720;51.992;5.890;2024-01-15T18:44:42;3.80;99.90
41557;DHT22;27720;51.992;5.890;2024-01-15T18:47:07;3.80;99.90
41557;DHT22;27720;51.992;5.890;2024-01-15T18:49:33;3.90;99.90
41557;DHT22;27720;51.992;5.890;2024-01-15T18:51:59;3.80;99.90
41557;DHT22;27720;51.992;5.890;2024-01-15T18:54:25;3.80;99.90
41557;DHT22;27720;51.992;5.890;2024-01-15T18:56:52;3.90;99.90
41557;DHT22;27720;51.992;5.890;2024-01-15T18:59:24;3.80;99.90
41557;DHT22;27720;51.992;5.890;2024-01-15T19:01:50;3.80;99.90
41557;DHT22;27720;51.992;5.890;2024-01-15T19:04:19;3.80;99.90
41557;DHT22;27720;51.992;5.890;2024-01-15T19:06:44;3.80;99.90
41557;DHT22;27720;51.992;5.890;2024-01-15T19:09:10;3.80;99.90
41557;DHT22;27720;51.992;5.890;2024-01-15T19:11:36;3.70;99.90
41557;DHT22;27720;51.992;5.890;2024-01-15T19:14:01;3.80;99.90
41557;DHT22;27720;51.992;5.890;2024-01-15T19:16:32;3.70;99.90
41557;DHT22;27720;51.992;5.890;2024-01-15T19:18:57;3.70;99.90
41557;DHT22;27720;51.992;5.890;2024-01-15T19:21:26;3.80;99.90
41557;DHT22;27720;51.992;5.890;2024-01-15T19:23:51;3.80;99.90
41557;DHT22;27720;51.992;5.890;2024-01-15T19:26:23;3.70;99.90
41557;DHT22;27720;51.992;5.890;2024-01-15T19:28:49;3.80;99.90
41557;DHT22;27720;51.992;5.890;2024-01-15T19:31:15;3.80;99.90
41557;DHT22;27720;51.992;5.890;2024-01-15T19:33:41;3.80;99.90
41557;DHT22;27720;51.992;5.890;2024-01-15T19:36:07;3.80;99.90
41557;DHT22;27720;51.992;5.890;2024-01-15T19:38:33;3.80;99.90
41557;DHT22;27720;51.992;5.890;2024-01-15T19:40:58;3.80;99.90
41557;DHT22;27720;51.992;5.890;2024-01-15T19:43:24;3.80;99.90
41557;DHT22;27720;51.992;5.890;2024-01-15T19:45:52;3.80;99.90
41557;DHT22;27720;51.992;5.890;2024-01-15T19:48:17;3.90;99.90
41557;DHT22;27720;51.992;5.890;2024-01-15T19:50:46;3.80;99.90
41557;DHT22;27720;51.992;5.890;2024-01-15T19:53:11;3.80;99.90
41557;DHT22;27720;51.992;5.890;2024-01-15T19:55:37;3.80;99.90
41557;DHT22;27720;51.992;5.890;2024-01-15T19:58:06;3.80;99.90
41557;DHT22;27720;51.992;5.890;2024-01-15T20:00:32;3.80;99.90
41557;DHT22;27720;51.992;5.890;2024-01-15T20:02:58;3.80;99.90
41557;DHT22;27720;51.992;5.890;2024-01-15T20:05:24;3.80;99.90
41557;DHT22;27720;51.992;5.890;2024-01-15T20:07:50;3.80;99.90
41557;DHT22;27720;51.992;5.890;2024-01-15T20:10:15;3.80;99.90
41557;DHT22;27720;51.992;5.890;2024-01-15T20:12:41;3.80;99.90
41557;DHT22;27720;51.992;5.890;2024-01-15T20:15:07;3.80;99.90
41557;DHT22;27720;51.992;5.890;2024-01-15T20:17:34;3.80;99.90
41557;DHT22;27720;51.992;5.890;2024-01-15T20:20:00;3.80;99.90
41557;DHT22;27720;51.992;5.890;2024-01-15T20:22:27;3.80;99.90
41557;DHT22;27720;51.992;5.890;2024-01-15T20:24:52;3.90;99.90
41557;DHT22;27720;51.992;5.890;2024-01-15T20:27:18;3.80;99.90
41557;DHT22;27720;51.992;5.890;2024-01-15T20:29:47;3.90;99.90
41557;DHT22;27720;51.992;5.890;2024-01-15T20:32:13;3.80;99.90
41557;DHT22;27720;51.992;5.890;2024-01-15T20:34:41;3.80;99.90
41557;DHT22;27720;51.992;5.890;2024-01-15T20:37:07;3.80;99.90
41557;DHT22;27720;51.992;5.890;2024-01-15T20:39:36;3.90;99.90
41557;DHT22;27720;51.992;5.890;2024-01-15T20:42:03;3.90;99.90
41557;DHT22;27720;51.992;5.890;2024-01-15T20:44:29;3.90;99.90
41557;DHT22;27720;51.992;5.890;2024-01-15T20:46:55;3.90;99.90
41557;DHT22;27720;51.992;5.890;2024-01-15T20:49:24;3.90;99.90
41557;DHT22;27720;51.992;5.890;2024-01-15T20:51:51;3.90;99.90
41557;DHT22;27720;51.992;5.890;2024-01-15T20:54:23;3.90;99.90
41557;DHT22;27720;51.992;5.890;2024-01-15T20:56:52;3.90;99.90
41557;DHT22;27720;51.992;5.890;2024-01-15T20:59:22;3.90;99.90
41557;DHT22;27720;51.992;5.890;2024-01-15T21:01:50;3.90;99.90
41557;DHT22;27720;51.992;5.890;2024-01-15T21:04:16;3.90;99.90
41557;DHT22;27720;51.992;5.890;2024-01-15T21:06:42;3.90;99.90
41557;DHT22;27720;51.992;5.890;2024-01-15T21:09:08;3.80;99.90
41557;DHT22;27720;51.992;5.890;2024-01-15T21:11:34;3.80;99.90
41557;DHT22;27720;51.992;5.890;2024-01-15T21:14:06;3.80;99.90
41557;DHT22;27720;51.992;5.890;2024-01-15T21:16:32;3.80;99.90
41557;DHT22;27720;51.992;5.890;2024-01-15T21:18:58;3.80;99.90
41557;DHT22;27720;51.992;5.890;2024-01-15T21:21:29;3.80;99.90
41557;DHT22;27720;51.992;5.890;2024-01-15T21:23:57;3.80;99.90
41557;DHT22;27720;51.992;5.890;2024-01-15T21:26:24;3.70;99.90
41557;DHT22;27720;51.992;5.890;2024-01-15T21:28:49;3.70;99.90
41557;DHT22;27720;51.992;5.890;2024-01-15T21:31:15;3.70;99.90
41557;DHT22;27720;51.992;5.890;2024-01-15T21:33:41;3.70;99.90
41557;DHT22;27720;51.992;5.890;2024-01-15T21:36:11;3.80;99.90
41557;DHT22;27720;51.992;5.890;2024-01-15T21:38:37;3.80;99.90
41557;DHT22;27720;51.992;5.890;2024-01-15T21:41:02;3.70;99.90
41557;DHT22;27720;51.992;5.890;2024-01-15T21:43:28;3.70;99.90
41557;DHT22;27720;51.992;5.890;2024-01-15T21:45:54;3.70;99.90
41557;DHT22;27720;51.992;5.890;2024-01-15T21:48:20;3.70;99.90
41557;DHT22;27720;51.992;5.890;2024-01-15T21:50:45;3.70;99.90
41557;DHT22;27720;51.992;5.890;2024-01-15T21:53:11;3.60;99.90
41557;DHT22;27720;51.992;5.890;2024-01-15T21:55:42;3.60;99.90
41557;DHT22;27720;51.992;5.890;2024-01-15T21:58:08;3.70;99.90
41557;DHT22;27720;51.992;5.890;2024-01-15T22:00:34;3.60;99.90
41557;DHT22;27720;51.992;5.890;2024-01-15T22:03:00;3.60;99.90
41557;DHT22;27720;51.992;5.890;2024-01-15T22:05:26;3.70;99.90
41557;DHT22;27720;51.992;5.890;2024-01-15T22:07:52;3.70;99.90
41557;DHT22;27720;51.992;5.890;2024-01-15T22:10:18;3.70;99.90
41557;DHT22;27720;51.992;5.890;2024-01-15T22:12:44;3.70;99.90
41557;DHT22;27720;51.992;5.890;2024-01-15T22:15:10;3.70;99.90
41557;DHT22;27720;51.992;5.890;2024-01-15T22:17:38;3.70;99.90
41557;DHT22;27720;51.992;5.890;2024-01-15T22:20:05;3.70;99.90
41557;DHT22;27720;51.992;5.890;2024-01-15T22:22:32;3.60;99.90
41557;DHT22;27720;51.992;5.890;2024-01-15T22:25:00;3.60;99.90
41557;DHT22;27720;51.992;5.890;2024-01-15T22:27:26;3.60;99.90
41557;DHT22;27720;51.992;5.890;2024-01-15T22:29:51;3.60;99.90
41557;DHT22;27720;51.992;5.890;2024-01-15T22:32:19;3.60;99.90
41557;DHT22;27720;51.992;5.890;2024-01-15T22:34:45;3.60;99.90
41557;DHT22;27720;51.992;5.890;2024-01-15T22:37:10;3.60;99.90
41557;DHT22;27720;51.992;5.890;2024-01-15T22:39:36;3.60;99.90
41557;DHT22;27720;51.992;5.890;2024-01-15T22:42:02;3.70;99.90
41557;DHT22;27720;51.992;5.890;2024-01-15T22:44:28;3.70;99.90
41557;DHT22;27720;51.992;5.890;2024-01-15T22:46:54;3.80;99.90
41557;DHT22;27720;51.992;5.890;2024-01-15T22:49:19;3.80;99.90
41557;DHT22;27720;51.992;5.890;2024-01-15T22:51:45;3.80;99.90
41557;DHT22;27720;51.992;5.890;2024-01-15T22:54:11;3.80;99.90
41557;DHT22;27720;51.992;5.890;2024-01-15T22:56:36;3.80;99.90
41557;DHT22;27720;51.992;5.890;2024-01-15T22:59:02;3.80;99.90
41557;DHT22;27720;51.992;5.890;2024-01-15T23:01:28;3.80;99.90
41557;DHT22;27720;51.992;5.890;2024-01-15T23:03:54;3.80;99.90
41557;DHT22;27720;51.992;5.890;2024-01-15T23:06:20;3.80;99.90
41557;DHT22;27720;51.992;5.890;2024-01-15T23:08:48;3.80;99.90
41557;DHT22;27720;51.992;5.890;2024-01-15T23:11:13;3.80;99.90
41557;DHT22;27720;51.992;5.890;2024-01-15T23:13:43;3.80;99.90
41557;DHT22;27720;51.992;5.890;2024-01-15T23:16:10;3.80;99.90
41557;DHT22;27720;51.992;5.890;2024-01-15T23:18:42;3.70;99.90
41557;DHT22;27720;51.992;5.890;2024-01-15T23:21:09;3.70;99.90
41557;DHT22;27720;51.992;5.890;2024-01-15T23:23:35;3.70;99.90
41557;DHT22;27720;51.992;5.890;2024-01-15T23:26:02;3.70;99.90
41557;DHT22;27720;51.992;5.890;2024-01-15T23:28:27;3.70;99.90
41557;DHT22;27720;51.992;5.890;2024-01-15T23:30:53;3.70;99.90
41557;DHT22;27720;51.992;5.890;2024-01-15T23:33:19;3.70;99.90
41557;DHT22;27720;51.992;5.890;2024-01-15T23:35:44;3.60;99.90
41557;DHT22;27720;51.992;5.890;2024-01-15T23:38:10;3.70;99.90
41557;DHT22;27720;51.992;5.890;2024-01-15T23:40:36;3.60;99.90
41557;DHT22;27720;51.992;5.890;2024-01-15T23:43:01;3.70;99.90
41557;DHT22;27720;51.992;5.890;2024-01-15T23:45:27;3.70;99.90
41557;DHT22;27720;51.992;5.890;2024-01-15T23:47:53;3.60;99.90
41557;DHT22;27720;51.992;5.890;2024-01-15T23:50:19;3.60;99.90
41557;DHT22;27720;51.992;5.890;2024-01-15T23:52:44;3.60;99.90
41557;DHT22;27720;51.992;5.890;2024-01-15T23:55:10;3.60;99.90
41557;DHT22;27720;51.992;5.890;2024-01-15T23:57:35;3.60;99.90
